Time;durP1;ratioP1;P1;durP2;ratioP2;P2;SDS_P1;SDS_P2;PMS_P1;PMS_P2;Temp;Humidity;BMP_temperature;BMP_pressure;BME280_temperature;BME280_humidity;BME280_pressure;Samples;Min_cycle;Max_cycle;Signal;HPM_P1;HPM_P2
2021/07/26 00:01:03;;;;;;;2.30;1.80;;;24.70;64.20;;;;;;5062122;28;20809;-61
2021/07/26 00:03:29;;;;;;;2.28;1.80;;;24.70;64.20;;;;;;5062263;28;20404;-61
2021/07/26 00:05:55;;;;;;;2.50;1.90;;;24.70;64.20;;;;;;5062170;28;20802;-62
2021/07/26 00:08:21;;;;;;;3.05;1.90;;;24.70;64.20;;;;;;5061338;28;20388;-61
2021/07/26 00:10:48;;;;;;;2.97;1.67;;;24.70;64.10;;;;;;5062340;28;20380;-61
2021/07/26 00:13:13;;;;;;;2.75;1.80;;;24.70;64.10;;;;;;5062541;28;20399;-62
2021/07/26 00:15:40;;;;;;;2.22;1.63;;;24.70;64.20;;;;;;5062336;28;20384;-61
2021/07/26 00:18:06;;;;;;;2.40;1.75;;;24.70;64.20;;;;;;5061825;28;20506;-62
2021/07/26 00:20:32;;;;;;;2.50;1.90;;;24.70;64.10;;;;;;5061815;28;20475;-61
2021/07/26 00:22:57;;;;;;;2.30;1.90;;;24.70;64.20;;;;;;5061637;28;20391;-61
2021/07/26 00:25:23;;;;;;;2.67;1.90;;;24.70;64.10;;;;;;5061749;28;20406;-63
2021/07/26 00:27:49;;;;;;;2.40;1.80;;;24.70;64.20;;;;;;5062024;28;20404;-62
2021/07/26 00:30:14;;;;;;;2.50;1.70;;;24.70;64.10;;;;;;5061718;28;20483;-62
2021/07/26 00:32:40;;;;;;;2.10;1.70;;;24.70;64.10;;;;;;5061955;28;20482;-61
2021/07/26 00:35:06;;;;;;;2.15;1.58;;;24.60;64.10;;;;;;5061785;28;20391;-62
2021/07/26 00:37:32;;;;;;;2.72;1.55;;;24.70;64.20;;;;;;5061866;28;20443;-62
2021/07/26 00:39:59;;;;;;;1.90;1.50;;;24.70;64.20;;;;;;5051425;28;20880;-61
2021/07/26 00:42:25;;;;;;;2.60;1.60;;;24.70;64.10;;;;;;5061400;28;20805;-61
2021/07/26 00:44:51;;;;;;;2.15;1.80;;;24.70;64.10;;;;;;5062010;28;20384;-61
2021/07/26 00:47:16;;;;;;;1.93;1.60;;;24.70;64.20;;;;;;5045878;28;20752;-62
2021/07/26 00:49:42;;;;;;;2.17;1.70;;;24.60;64.10;;;;;;5061925;28;20887;-62
2021/07/26 00:52:08;;;;;;;2.00;1.70;;;24.60;64.10;;;;;;5061877;28;20453;-61
2021/07/26 00:54:36;;;;;;;2.10;1.63;;;24.60;64.00;;;;;;5061324;28;20442;-61
2021/07/26 00:57:03;;;;;;;3.17;2.00;;;24.60;64.10;;;;;;5061686;28;20879;-62
2021/07/26 00:59:30;;;;;;;2.42;1.73;;;24.60;64.00;;;;;;5062065;28;20522;-62
2021/07/26 01:01:56;;;;;;;2.10;1.60;;;24.60;64.00;;;;;;5065636;28;20391;-61
2021/07/26 01:04:22;;;;;;;2.15;1.75;;;24.60;64.00;;;;;;5065063;28;20388;-61
2021/07/26 01:06:48;;;;;;;2.05;1.70;;;24.60;64.10;;;;;;5057098;28;20399;-62
2021/07/26 01:09:14;;;;;;;2.28;1.80;;;24.60;64.00;;;;;;5065613;28;20863;-62
2021/07/26 01:11:40;;;;;;;2.03;1.63;;;24.60;64.00;;;;;;5054167;28;20392;-61
2021/07/26 01:14:06;;;;;;;1.95;1.67;;;24.60;64.00;;;;;;5065512;28;20387;-62
2021/07/26 01:16:32;;;;;;;2.27;1.80;;;24.60;64.00;;;;;;5064586;28;20383;-61
2021/07/26 01:19:01;;;;;;;2.30;1.85;;;24.60;64.00;;;;;;5065035;28;20850;-62
2021/07/26 01:21:28;;;;;;;1.98;1.70;;;24.60;64.00;;;;;;5065199;28;20391;-62
2021/07/26 01:23:54;;;;;;;2.20;1.60;;;24.60;64.00;;;;;;5064871;28;20440;-61
2021/07/26 01:26:22;;;;;;;2.60;1.60;;;24.60;64.00;;;;;;5065117;28;20895;-62
2021/07/26 01:28:51;;;;;;;3.00;1.75;;;24.60;64.00;;;;;;5065307;28;20384;-61
2021/07/26 01:31:17;;;;;;;2.38;1.58;;;24.60;64.00;;;;;;5065191;28;20384;-61
2021/07/26 01:33:44;;;;;;;2.10;1.63;;;24.60;64.00;;;;;;5064988;28;20433;-61
2021/07/26 01:36:11;;;;;;;2.47;1.63;;;24.60;64.00;;;;;;5064838;28;20380;-61
2021/07/26 01:38:38;;;;;;;2.40;1.85;;;24.60;64.00;;;;;;5063900;28;20910;-61
2021/07/26 01:41:17;;;;;;;2.97;1.80;;;24.60;64.60;;;;;;5064840;28;20444;-61
2021/07/26 01:44:02;;;;;;;2.50;1.90;;;24.60;64.00;;;;;;5064485;28;20387;-62
2021/07/26 01:47:00;;;;;;;2.42;1.90;;;24.60;64.00;;;;;;5064020;28;20423;-62
2021/07/26 01:49:54;;;;;;;2.20;1.88;;;24.50;63.90;;;;;;5064133;28;20399;-62
2021/07/26 01:52:21;;;;;;;2.60;1.87;;;24.60;64.00;;;;;;5064416;28;20383;-61
2021/07/26 01:54:47;;;;;;;2.63;1.88;;;24.50;63.90;;;;;;5064323;28;20878;-62
2021/07/26 01:57:14;;;;;;;2.30;1.80;;;24.50;63.90;;;;;;5064627;28;20384;-62
2021/07/26 01:59:40;;;;;;;2.20;1.80;;;24.50;63.90;;;;;;5064218;28;20429;-61
2021/07/26 02:02:06;;;;;;;2.35;1.60;;;24.50;63.90;;;;;;5064478;28;20395;-61
2021/07/26 02:04:32;;;;;;;2.00;1.67;;;24.50;63.90;;;;;;5064058;28;20392;-61
2021/07/26 02:06:57;;;;;;;2.22;1.67;;;24.50;63.80;;;;;;5064090;28;20437;-61
2021/07/26 02:09:23;;;;;;;2.40;1.70;;;24.50;63.90;;;;;;5055806;28;20740;-62
2021/07/26 02:11:48;;;;;;;2.37;1.60;;;24.50;63.90;;;;;;5063829;28;20407;-61
2021/07/26 02:14:14;;;;;;;2.20;1.70;;;24.50;63.80;;;;;;5063139;28;20399;-61
2021/07/26 02:16:42;;;;;;;2.30;1.60;;;24.50;63.80;;;;;;5063434;28;20404;-62
2021/07/26 02:19:08;;;;;;;2.63;1.70;;;24.50;63.80;;;;;;5050887;28;20426;-62
2021/07/26 02:21:34;;;;;;;2.10;1.65;;;24.50;63.80;;;;;;5056068;28;20463;-62
2021/07/26 02:23:59;;;;;;;3.25;1.70;;;24.50;63.90;;;;;;5063913;28;20495;-62
2021/07/26 02:26:25;;;;;;;2.45;1.90;;;24.50;63.90;;;;;;5057239;28;20923;-61
2021/07/26 02:28:51;;;;;;;2.20;1.88;;;24.50;63.80;;;;;;5063973;28;20474;-61
2021/07/26 02:31:16;;;;;;;2.50;1.70;;;24.50;63.80;;;;;;5064318;28;20391;-62
2021/07/26 02:33:42;;;;;;;1.83;1.55;;;24.50;63.80;;;;;;5063740;28;20867;-62
2021/07/26 02:36:08;;;;;;;2.07;1.70;;;24.50;63.80;;;;;;5063943;28;20439;-61
2021/07/26 02:38:33;;;;;;;1.98;1.60;;;24.50;63.80;;;;;;5063102;28;20416;-61
2021/07/26 02:41:12;;;;;;;2.90;1.80;;;24.50;63.80;;;;;;5063521;28;20387;-62
2021/07/26 02:43:38;;;;;;;3.10;1.80;;;24.40;64.30;;;;;;5064086;28;20514;-62
2021/07/26 02:46:06;;;;;;;2.07;1.70;;;24.40;63.70;;;;;;5063573;28;20391;-61
2021/07/26 02:48:36;;;;;;;2.20;1.80;;;24.40;63.70;;;;;;5063159;28;20387;-62
2021/07/26 02:51:02;;;;;;;2.15;1.60;;;24.40;63.70;;;;;;5063451;28;20574;-62
2021/07/26 02:53:27;;;;;;;2.00;1.40;;;24.40;63.70;;;;;;5063159;28;21008;-62
2021/07/26 02:55:53;;;;;;;2.25;1.75;;;24.50;63.80;;;;;;5063119;28;20748;-61
2021/07/26 02:58:20;;;;;;;2.78;1.60;;;24.40;63.70;;;;;;5063297;28;20426;-61
2021/07/26 03:00:46;;;;;;;1.70;1.40;;;24.40;63.70;;;;;;5063122;28;20763;-62
2021/07/26 03:03:12;;;;;;;2.47;1.75;;;24.40;63.70;;;;;;5055138;28;20404;-61
2021/07/26 03:05:38;;;;;;;2.10;1.30;;;24.40;63.70;;;;;;5063242;28;20457;-61
2021/07/26 03:08:03;;;;;;;2.23;1.60;;;24.40;63.70;;;;;;5062837;28;21323;-62
2021/07/26 03:10:29;;;;;;;2.55;1.60;;;24.50;63.70;;;;;;5050904;28;20398;-62
2021/07/26 03:12:55;;;;;;;2.40;1.50;;;24.40;63.90;;;;;;5051733;28;20980;-61
2021/07/26 03:15:21;;;;;;;2.42;1.60;;;24.40;64.10;;;;;;5063240;28;20867;-61
2021/07/26 03:17:48;;;;;;;2.22;1.88;;;24.40;64.20;;;;;;5062524;28;21183;-61
2021/07/26 03:20:13;;;;;;;1.90;1.50;;;24.40;65.50;;;;;;5062927;28;20395;-61
2021/07/26 03:22:50;;;;;;;3.03;1.60;;;24.40;64.50;;;;;;5061834;28;20388;-62
2021/07/26 03:25:16;;;;;;;2.90;1.70;;;24.50;66.30;;;;;;5062933;28;20883;-61
2021/07/26 03:27:41;;;;;;;2.45;1.70;;;24.50;66.50;;;;;;5062641;28;20390;-61
2021/07/26 03:30:08;;;;;;;2.47;1.90;;;24.60;66.90;;;;;;5062635;28;20403;-61
2021/07/26 03:32:33;;;;;;;2.40;1.67;;;24.60;66.50;;;;;;5061530;28;20380;-62
2021/07/26 03:34:59;;;;;;;2.00;1.70;;;24.60;66.70;;;;;;5062185;28;20395;-61
2021/07/26 03:37:25;;;;;;;3.45;1.75;;;24.60;67.50;;;;;;5062665;28;20919;-61
2021/07/26 03:39:50;;;;;;;3.33;1.77;;;24.60;66.90;;;;;;5062646;28;20395;-62
2021/07/26 03:42:16;;;;;;;1.95;1.45;;;24.60;66.70;;;;;;5062201;28;20482;-61
2021/07/26 03:44:41;;;;;;;2.03;1.50;;;24.60;65.60;;;;;;5061997;28;20395;-62
2021/07/26 03:47:07;;;;;;;3.20;1.60;;;24.60;66.20;;;;;;5062300;28;20387;-62
2021/07/26 03:49:33;;;;;;;3.28;1.90;;;24.60;66.80;;;;;;5062378;28;20384;-61
2021/07/26 03:51:58;;;;;;;3.30;1.70;;;24.60;66.70;;;;;;5062265;28;20396;-61
2021/07/26 03:54:24;;;;;;;4.20;1.90;;;24.70;66.70;;;;;;5061922;28;20437;-63
2021/07/26 03:56:50;;;;;;;4.23;1.70;;;24.70;66.50;;;;;;5061927;28;20392;-61
2021/07/26 03:59:15;;;;;;;2.43;1.80;;;24.70;66.50;;;;;;5062322;28;20959;-61
2021/07/26 04:01:41;;;;;;;2.40;1.70;;;24.70;66.20;;;;;;5062002;28;20392;-61
2021/07/26 04:04:07;;;;;;;2.27;1.60;;;24.70;66.20;;;;;;5062283;28;20437;-61
2021/07/26 04:06:32;;;;;;;3.33;1.70;;;24.70;65.70;;;;;;5061387;28;20384;-63
2021/07/26 04:08:59;;;;;;;2.00;1.57;;;24.70;65.80;;;;;;5062092;28;20655;-61
2021/07/26 04:11:28;;;;;;;2.42;1.85;;;24.60;65.70;;;;;;5061976;28;20519;-61
2021/07/26 04:14:00;;;;;;;4.70;2.22;;;24.60;64.70;;;;;;5061329;28;20449;-61
2021/07/26 04:16:26;;;;;;;5.20;2.63;;;24.60;64.10;;;;;;5062973;28;20386;-61
2021/07/26 04:18:53;;;;;;;4.70;2.33;;;24.50;63.90;;;;;;5062153;28;20411;-61
2021/07/26 04:21:27;;;;;;;3.60;2.47;;;24.50;63.50;;;;;;5062473;28;20383;-61
2021/07/26 04:23:53;;;;;;;5.18;2.75;;;24.40;63.40;;;;;;5061990;28;20392;-60
2021/07/26 04:26:18;;;;;;;3.60;2.60;;;24.40;63.30;;;;;;5061948;28;20406;-61
2021/07/26 04:28:44;;;;;;;4.05;2.42;;;24.40;62.80;;;;;;5061801;28;20423;-61
2021/07/26 04:31:09;;;;;;;3.05;2.35;;;24.40;62.80;;;;;;5053524;28;20486;-60
2021/07/26 04:33:35;;;;;;;3.07;2.30;;;24.40;62.60;;;;;;5062600;28;20394;-60
2021/07/26 04:36:01;;;;;;;4.07;2.17;;;24.40;62.60;;;;;;5065966;28;20387;-60
2021/07/26 04:38:27;;;;;;;3.90;2.28;;;24.40;62.70;;;;;;5065717;28;20411;-60
2021/07/26 04:40:52;;;;;;;2.63;2.10;;;24.40;62.60;;;;;;5065651;28;20799;-60
2021/07/26 04:43:18;;;;;;;3.27;2.13;;;24.40;62.70;;;;;;5066000;28;20884;-60
2021/07/26 04:45:44;;;;;;;3.15;2.10;;;24.40;62.70;;;;;;5065677;28;20475;-61
2021/07/26 04:48:09;;;;;;;2.72;2.00;;;24.40;62.70;;;;;;5065761;28;20390;-60
2021/07/26 04:50:35;;;;;;;3.90;2.20;;;24.40;62.80;;;;;;5065448;28;20402;-61
2021/07/26 04:53:01;;;;;;;3.17;2.05;;;24.40;62.80;;;;;;5065434;28;21256;-61
2021/07/26 04:55:27;;;;;;;2.77;2.20;;;24.40;62.80;;;;;;5065925;28;20932;-60
2021/07/26 04:57:53;;;;;;;3.53;2.05;;;24.40;62.90;;;;;;5065396;28;20419;-60
2021/07/26 05:00:19;;;;;;;3.37;2.27;;;24.40;63.00;;;;;;5065646;28;20482;-61
2021/07/26 05:02:44;;;;;;;3.03;2.00;;;24.40;62.90;;;;;;5065126;28;20393;-60
2021/07/26 05:05:10;;;;;;;2.97;2.10;;;24.40;63.00;;;;;;5065599;28;20388;-60
2021/07/26 05:07:36;;;;;;;4.30;2.10;;;24.40;63.00;;;;;;5065358;28;20483;-60
2021/07/26 05:10:03;;;;;;;4.10;2.40;;;24.40;63.10;;;;;;5064802;28;20474;-60
2021/07/26 05:12:28;;;;;;;3.78;2.45;;;24.40;63.00;;;;;;5064561;28;20423;-60
2021/07/26 05:14:54;;;;;;;4.50;2.13;;;24.40;63.00;;;;;;5064532;28;20954;-60
2021/07/26 05:17:23;;;;;;;3.53;2.30;;;24.30;62.90;;;;;;5064552;28;20408;-60
2021/07/26 05:19:50;;;;;;;4.10;2.13;;;24.30;62.80;;;;;;5064221;28;20395;-60
2021/07/26 05:22:15;;;;;;;4.07;2.25;;;24.30;62.80;;;;;;5064759;28;20733;-60
2021/07/26 05:24:42;;;;;;;3.03;2.20;;;24.40;63.00;;;;;;5063961;28;20945;-60
2021/07/26 05:27:08;;;;;;;2.90;2.30;;;24.30;62.90;;;;;;5064036;28;20483;-60
2021/07/26 05:29:34;;;;;;;3.40;2.10;;;24.30;62.80;;;;;;5064448;28;20557;-60
2021/07/26 05:32:00;;;;;;;2.72;2.00;;;24.40;62.90;;;;;;5064269;28;20395;-60
2021/07/26 05:34:26;;;;;;;3.00;1.80;;;24.30;62.80;;;;;;5064509;28;20391;-60
2021/07/26 05:36:52;;;;;;;3.22;2.00;;;24.30;62.90;;;;;;5063985;28;20391;-60
2021/07/26 05:39:18;;;;;;;2.60;1.70;;;24.30;62.80;;;;;;5064547;28;20738;-60
2021/07/26 05:41:44;;;;;;;3.17;2.20;;;24.30;62.80;;;;;;5065060;28;20399;-60
2021/07/26 05:44:11;;;;;;;2.43;2.10;;;24.40;62.90;;;;;;5064499;28;20739;-60
2021/07/26 05:46:36;;;;;;;2.72;1.92;;;24.40;62.90;;;;;;5063073;28;20410;-60
2021/07/26 05:49:02;;;;;;;3.70;2.30;;;24.30;62.90;;;;;;5064139;28;20875;-60
2021/07/26 05:51:28;;;;;;;2.83;2.15;;;24.30;62.90;;;;;;5064014;28;20697;-60
2021/07/26 05:53:54;;;;;;;2.63;2.00;;;24.30;62.90;;;;;;5064299;28;20396;-60
2021/07/26 05:56:19;;;;;;;3.33;2.15;;;24.30;63.00;;;;;;5063931;28;20478;-60
2021/07/26 05:58:46;;;;;;;2.40;1.90;;;24.30;63.10;;;;;;5063692;28;20858;-60
2021/07/26 06:03:44;;;;;;;2.65;1.88;;;24.30;63.00;;;;;;5064293;28;20482;-60
2021/07/26 06:06:10;;;;;;;2.90;2.00;;;24.30;63.00;;;;;;5063743;28;20931;-60
2021/07/26 06:08:36;;;;;;;3.20;2.05;;;24.30;63.10;;;;;;5063732;28;20400;-60
2021/07/26 06:11:02;;;;;;;2.77;1.80;;;24.30;63.00;;;;;;5063765;28;20391;-60
2021/07/26 06:13:28;;;;;;;4.30;2.20;;;24.30;62.90;;;;;;5064163;28;20384;-60
2021/07/26 06:15:54;;;;;;;3.53;2.05;;;24.30;63.00;;;;;;5063855;28;20380;-60
2021/07/26 06:18:19;;;;;;;4.50;2.00;;;24.30;63.00;;;;;;5051404;28;20791;-60
2021/07/26 06:20:45;;;;;;;3.17;2.10;;;24.30;62.90;;;;;;5063211;28;20403;-60
2021/07/26 06:23:11;;;;;;;3.15;2.28;;;24.30;62.90;;;;;;5063545;28;20590;-60
2021/07/26 06:25:37;;;;;;;2.73;2.10;;;24.30;62.80;;;;;;5063678;28;20426;-60
2021/07/26 06:28:02;;;;;;;3.38;2.10;;;24.30;63.00;;;;;;5048732;28;20431;-60
2021/07/26 06:30:28;;;;;;;3.20;1.97;;;24.30;62.90;;;;;;5063657;28;20391;-61
2021/07/26 06:32:55;;;;;;;2.70;1.85;;;24.30;63.00;;;;;;5062979;28;20392;-60
2021/07/26 06:35:21;;;;;;;3.10;2.15;;;24.30;63.00;;;;;;5063636;28;20470;-60
2021/07/26 06:37:46;;;;;;;2.72;1.92;;;24.30;63.10;;;;;;5063088;28;20890;-60
2021/07/26 06:40:13;;;;;;;3.78;1.88;;;24.30;63.00;;;;;;5063340;28;20933;-60
2021/07/26 06:42:38;;;;;;;2.50;1.70;;;24.30;63.00;;;;;;5062417;28;20388;-60
2021/07/26 06:45:07;;;;;;;2.70;2.10;;;24.30;63.10;;;;;;5062909;28;20400;-60
2021/07/26 06:47:34;;;;;;;2.90;2.00;;;24.30;63.00;;;;;;5062963;28;20391;-60
2021/07/26 06:49:59;;;;;;;2.35;1.85;;;24.30;63.10;;;;;;5063182;28;20388;-60
2021/07/26 06:52:25;;;;;;;2.33;1.92;;;24.30;62.90;;;;;;5062714;28;20426;-60
2021/07/26 06:54:51;;;;;;;3.40;2.10;;;24.30;63.00;;;;;;5062672;28;20519;-60
2021/07/26 06:57:16;;;;;;;2.30;1.80;;;24.30;63.00;;;;;;5061740;28;20388;-60
2021/07/26 06:59:42;;;;;;;2.58;1.90;;;24.30;62.90;;;;;;5052497;28;20403;-60
2021/07/26 07:02:07;;;;;;;2.87;2.00;;;24.30;62.80;;;;;;5062819;28;20468;-60
2021/07/26 07:04:33;;;;;;;3.10;2.00;;;24.30;62.80;;;;;;5062329;28;20391;-60
2021/07/26 07:06:59;;;;;;;2.50;1.90;;;24.30;62.80;;;;;;5062675;28;21147;-60
2021/07/26 07:09:25;;;;;;;2.40;2.00;;;24.30;62.80;;;;;;5062706;28;20396;-60
2021/07/26 07:11:51;;;;;;;2.85;2.00;;;24.30;62.90;;;;;;5054892;28;20392;-60
2021/07/26 07:14:16;;;;;;;2.50;1.90;;;24.30;62.90;;;;;;5062610;28;20396;-60
2021/07/26 07:16:42;;;;;;;2.40;1.90;;;24.30;62.90;;;;;;5062035;28;20433;-60
2021/07/26 07:19:08;;;;;;;3.08;2.13;;;24.30;62.80;;;;;;5062380;28;20517;-60
2021/07/26 07:21:34;;;;;;;2.33;1.90;;;24.30;62.80;;;;;;5062738;28;20464;-60
2021/07/26 07:24:02;;;;;;;2.22;1.80;;;24.30;62.80;;;;;;5062220;28;20471;-60
2021/07/26 07:26:29;;;;;;;2.28;1.85;;;24.30;62.80;;;;;;5062128;28;20419;-60
2021/07/26 07:28:55;;;;;;;2.20;1.80;;;24.30;62.80;;;;;;5062155;28;20460;-60
2021/07/26 07:31:27;;;;;;;2.28;2.00;;;24.30;62.80;;;;;;5062484;28;20521;-60
2021/07/26 07:33:57;;;;;;;2.63;1.98;;;24.30;62.80;;;;;;5062187;28;20376;-60
2021/07/26 07:36:24;;;;;;;2.30;1.90;;;24.30;62.80;;;;;;5062604;28;20435;-60
2021/07/26 07:38:50;;;;;;;2.55;1.88;;;24.30;62.80;;;;;;5061450;28;20832;-60
2021/07/26 07:41:17;;;;;;;2.35;1.77;;;24.30;62.80;;;;;;5047424;28;20384;-60
2021/07/26 07:43:43;;;;;;;2.40;1.87;;;24.30;62.80;;;;;;5047336;28;20446;-60
2021/07/26 07:46:09;;;;;;;2.22;1.92;;;24.30;62.80;;;;;;5052011;28;20383;-61
2021/07/26 07:48:35;;;;;;;2.55;1.88;;;24.30;62.80;;;;;;5061956;28;20777;-61
2021/07/26 07:51:01;;;;;;;2.50;1.90;;;24.30;62.80;;;;;;5061644;28;20835;-60
2021/07/26 07:53:27;;;;;;;2.38;2.08;;;24.30;62.80;;;;;;5061951;28;20701;-60
2021/07/26 07:55:53;;;;;;;1.95;1.73;;;24.30;63.40;;;;;;5062303;28;20430;-60
2021/07/26 07:58:20;;;;;;;2.23;2.00;;;24.30;62.80;;;;;;5061524;28;20911;-60
2021/07/26 08:00:50;;;;;;;2.80;2.10;;;24.30;62.80;;;;;;5061288;28;20748;-60
2021/07/26 08:03:16;;;;;;;2.10;1.90;;;24.30;62.80;;;;;;5061750;28;20411;-60
2021/07/26 08:05:42;;;;;;;2.42;1.90;;;24.30;62.80;;;;;;5061632;28;20447;-60
2021/07/26 08:08:08;;;;;;;3.00;2.00;;;24.30;62.80;;;;;;5061635;28;20379;-60
2021/07/26 08:10:34;;;;;;;2.40;1.90;;;24.30;62.80;;;;;;5061406;28;20394;-60
2021/07/26 08:13:00;;;;;;;3.10;2.03;;;24.30;62.80;;;;;;5061182;28;20391;-60
2021/07/26 08:15:26;;;;;;;2.15;1.85;;;24.30;62.80;;;;;;5061679;28;20383;-60
2021/07/26 08:17:52;;;;;;;2.50;2.10;;;24.30;62.80;;;;;;5061481;28;20427;-60
2021/07/26 08:20:19;;;;;;;2.20;1.80;;;24.30;62.80;;;;;;5061310;28;20407;-60
2021/07/26 08:22:46;;;;;;;2.50;2.00;;;24.30;62.70;;;;;;5046231;28;20430;-60
2021/07/26 08:25:13;;;;;;;2.30;2.00;;;24.30;62.70;;;;;;5050444;28;20396;-60
2021/07/26 08:27:58;;;;;;;2.53;2.00;;;24.30;62.70;;;;;;5052117;28;20414;-60
2021/07/26 08:30:32;;;;;;;2.42;1.90;;;24.30;62.80;;;;;;5061371;28;20956;-60
2021/07/26 08:32:57;;;;;;;2.78;2.20;;;24.30;62.70;;;;;;5061222;28;20395;-61
2021/07/26 08:35:24;;;;;;;2.55;2.10;;;24.30;62.80;;;;;;5061443;28;20392;-61
2021/07/26 08:37:51;;;;;;;2.60;2.00;;;24.30;62.70;;;;;;5050311;28;20483;-60
2021/07/26 08:40:19;;;;;;;3.00;2.05;;;24.30;62.70;;;;;;5061870;28;20402;-60
2021/07/26 08:42:45;;;;;;;2.45;1.80;;;24.30;62.80;;;;;;5060802;28;20391;-60
2021/07/26 08:45:10;;;;;;;2.60;1.90;;;24.30;62.70;;;;;;5061472;28;20407;-60
2021/07/26 08:47:41;;;;;;;3.10;2.17;;;24.30;62.70;;;;;;5061225;28;20383;-60
2021/07/26 08:50:08;;;;;;;2.70;2.00;;;24.30;62.70;;;;;;5060657;28;20383;-60
2021/07/26 08:52:43;;;;;;;2.63;2.10;;;24.30;62.70;;;;;;5061493;28;20729;-60
2021/07/26 08:55:13;;;;;;;2.47;2.10;;;24.30;62.70;;;;;;5061485;28;20420;-60
2021/07/26 08:57:46;;;;;;;2.17;1.80;;;24.40;62.70;;;;;;5061441;28;20403;-60
2021/07/26 09:00:14;;;;;;;2.60;1.92;;;24.30;62.60;;;;;;5061617;28;20391;-60
2021/07/26 09:02:40;;;;;;;2.30;2.10;;;24.30;62.70;;;;;;5061020;28;20387;-60
2021/07/26 09:05:07;;;;;;;2.47;1.97;;;24.30;62.60;;;;;;5060810;28;20399;-60
2021/07/26 09:07:40;;;;;;;2.70;2.20;;;24.30;62.70;;;;;;5061135;28;20875;-60
2021/07/26 09:10:20;;;;;;;2.47;2.10;;;24.30;62.60;;;;;;5061122;28;20895;-60
2021/07/26 09:12:48;;;;;;;2.22;1.90;;;24.30;62.70;;;;;;5060263;28;20475;-60
2021/07/26 09:15:30;;;;;;;2.33;2.10;;;24.30;62.60;;;;;;5059306;28;20435;-60
2021/07/26 09:17:59;;;;;;;2.97;2.17;;;24.30;62.70;;;;;;5060828;28;20451;-60
2021/07/26 09:20:28;;;;;;;2.70;2.20;;;24.30;62.70;;;;;;5061165;28;20894;-60
2021/07/26 09:22:57;;;;;;;2.35;2.15;;;24.30;62.80;;;;;;5064344;28;20391;-60
2021/07/26 09:25:27;;;;;;;2.63;2.00;;;24.30;62.70;;;;;;5064393;28;20635;-60
2021/07/26 09:28:03;;;;;;;2.45;2.05;;;24.30;62.70;;;;;;5064580;28;20388;-60
2021/07/26 09:30:36;;;;;;;2.42;2.03;;;24.30;62.60;;;;;;5064700;28;20450;-60
2021/07/26 09:33:03;;;;;;;3.15;2.20;;;24.30;62.60;;;;;;5063902;28;20392;-60
2021/07/26 09:35:29;;;;;;;2.70;2.10;;;24.30;62.60;;;;;;5064623;28;20395;-60
2021/07/26 09:38:00;;;;;;;2.60;2.10;;;24.30;62.60;;;;;;5064209;28;20418;-60
2021/07/26 09:40:35;;;;;;;2.10;1.90;;;24.40;62.60;;;;;;5064140;28;20488;-61
2021/07/26 09:43:16;;;;;;;3.08;2.30;;;24.40;62.70;;;;;;5063646;28;20974;-60
2021/07/26 09:45:42;;;;;;;2.65;2.20;;;24.40;62.60;;;;;;5064519;28;20391;-60
2021/07/26 09:48:11;;;;;;;2.60;2.17;;;24.40;62.60;;;;;;5064521;28;20932;-60
2021/07/26 09:50:38;;;;;;;2.70;2.20;;;24.40;62.60;;;;;;5064326;28;20388;-60
2021/07/26 09:53:13;;;;;;;2.38;2.10;;;24.30;62.50;;;;;;5063839;28;20371;-60
2021/07/26 09:55:42;;;;;;;2.80;2.25;;;24.40;62.50;;;;;;5064348;28;20405;-61
2021/07/26 09:58:10;;;;;;;2.75;2.38;;;24.40;62.50;;;;;;5063589;28;20418;-60
2021/07/26 10:00:37;;;;;;;2.55;1.98;;;24.40;62.50;;;;;;5064066;28;20391;-60
2021/07/26 10:03:08;;;;;;;2.20;1.88;;;24.40;62.50;;;;;;5063849;28;20388;-60
2021/07/26 10:05:38;;;;;;;2.50;2.30;;;24.40;62.50;;;;;;5063846;28;20802;-60
2021/07/26 10:08:05;;;;;;;2.58;2.30;;;24.40;62.50;;;;;;5063860;28;20394;-60
2021/07/26 10:10:38;;;;;;;2.50;2.28;;;24.40;62.50;;;;;;5063768;28;20768;-60
2021/07/26 10:13:04;;;;;;;2.58;2.15;;;24.40;62.50;;;;;;5063156;28;20779;-60
2021/07/26 10:15:32;;;;;;;2.63;2.30;;;24.40;62.50;;;;;;5063787;28;20418;-60
2021/07/26 10:17:58;;;;;;;2.30;2.00;;;24.40;62.50;;;;;;5063700;28;20479;-60
2021/07/26 10:20:29;;;;;;;2.50;2.10;;;24.40;62.50;;;;;;5064140;28;20410;-60
2021/07/26 10:23:17;;;;;;;3.17;2.13;;;24.40;62.50;;;;;;5063370;28;20390;-61
2021/07/26 10:25:54;;;;;;;2.60;2.35;;;24.30;62.40;;;;;;5063578;28;20399;-61
2021/07/26 10:28:25;;;;;;;2.60;2.25;;;24.40;62.40;;;;;;5063499;28;20403;-60
2021/07/26 10:30:51;;;;;;;3.03;2.47;;;24.40;62.60;;;;;;5062961;28;20416;-60
2021/07/26 10:33:16;;;;;;;3.08;2.28;;;24.40;62.50;;;;;;5063342;28;20785;-60
2021/07/26 10:35:53;;;;;;;2.38;2.10;;;24.40;62.50;;;;;;5052221;28;20725;-60
2021/07/26 10:38:44;;;;;;;2.58;2.05;;;24.40;62.50;;;;;;5063372;28;20420;-60
2021/07/26 10:41:30;;;;;;;2.83;2.28;;;24.40;62.50;;;;;;5062744;28;20387;-60
2021/07/26 10:43:59;;;;;;;3.33;2.30;;;24.40;62.50;;;;;;5063363;28;20406;-60
2021/07/26 10:46:24;;;;;;;2.80;2.35;;;24.40;62.50;;;;;;5063376;28;20384;-60
2021/07/26 10:48:52;;;;;;;2.72;2.22;;;24.40;62.50;;;;;;5062554;28;20391;-60
2021/07/26 10:51:37;;;;;;;3.00;2.30;;;24.40;62.50;;;;;;5062861;28;20430;-60
2021/07/26 10:54:04;;;;;;;2.85;2.28;;;24.40;62.50;;;;;;5063123;28;20402;-61
2021/07/26 10:57:02;;;;;;;2.90;2.30;;;24.40;62.50;;;;;;5063101;28;20413;-60
2021/07/26 10:59:28;;;;;;;2.60;2.10;;;24.40;62.50;;;;;;5062602;28;20416;-60
2021/07/26 11:02:01;;;;;;;3.20;2.38;;;24.40;62.50;;;;;;5062990;28;20388;-60
2021/07/26 11:04:39;;;;;;;2.78;2.28;;;24.40;62.50;;;;;;5063044;28;20400;-60
2021/07/26 11:07:10;;;;;;;2.95;2.35;;;24.40;62.50;;;;;;5062363;28;20384;-60
2021/07/26 11:09:43;;;;;;;2.55;2.20;;;24.40;62.50;;;;;;5062560;28;20588;-60
2021/07/26 11:12:09;;;;;;;2.40;2.20;;;24.40;62.40;;;;;;5063114;28;20474;-60
2021/07/26 11:14:35;;;;;;;2.83;2.40;;;24.40;62.40;;;;;;5062310;28;20403;-60
2021/07/26 11:17:07;;;;;;;3.47;2.30;;;24.40;62.40;;;;;;5062278;28;20956;-60
2021/07/26 11:19:33;;;;;;;2.60;2.20;;;24.40;62.40;;;;;;5062699;28;20417;-61
2021/07/26 11:22:05;;;;;;;2.63;2.15;;;24.40;62.30;;;;;;5062194;28;20411;-61
2021/07/26 11:24:39;;;;;;;2.50;2.17;;;24.40;62.40;;;;;;5062434;28;20395;-60
2021/07/26 11:27:05;;;;;;;2.30;2.07;;;24.40;62.30;;;;;;5061829;28;20463;-60
2021/07/26 11:29:31;;;;;;;3.20;2.40;;;24.50;62.30;;;;;;5062451;28;20736;-60
2021/07/26 11:31:58;;;;;;;2.85;2.30;;;24.50;62.30;;;;;;5062240;28;20397;-60
2021/07/26 11:34:28;;;;;;;2.85;2.10;;;24.50;62.40;;;;;;5062361;28;20437;-60
2021/07/26 11:37:14;;;;;;;3.53;2.35;;;24.50;62.40;;;;;;5061895;28;20450;-60
2021/07/26 11:40:00;;;;;;;3.00;2.53;;;24.50;62.30;;;;;;5061970;28;20427;-60
2021/07/26 11:42:27;;;;;;;3.20;2.50;;;24.50;62.30;;;;;;5062362;28;20398;-60
2021/07/26 11:44:53;;;;;;;2.88;2.25;;;24.50;62.30;;;;;;5060516;28;20542;-60
2021/07/26 11:47:40;;;;;;;3.67;2.50;;;24.50;62.40;;;;;;5061799;28;20428;-60
2021/07/26 11:50:11;;;;;;;3.60;2.60;;;24.50;62.40;;;;;;5062049;28;20470;-60
2021/07/26 11:52:38;;;;;;;3.40;2.40;;;24.50;62.40;;;;;;5047248;28;20402;-60
2021/07/26 11:55:14;;;;;;;3.65;2.25;;;24.50;62.40;;;;;;5044669;28;20835;-60
2021/07/26 11:58:02;;;;;;;2.83;2.40;;;24.50;62.40;;;;;;5061780;28;20396;-60
2021/07/26 12:00:35;;;;;;;3.30;2.40;;;24.50;62.30;;;;;;5061704;28;20390;-60
2021/07/26 12:03:01;;;;;;;3.17;2.60;;;24.50;62.30;;;;;;5061200;28;20737;-60
2021/07/26 12:05:29;;;;;;;5.38;3.00;;;24.50;62.40;;;;;;5062756;28;20410;-60
2021/07/26 12:07:55;;;;;;;3.58;2.60;;;24.50;62.50;;;;;;5061284;28;20414;-60
2021/07/26 12:10:32;;;;;;;4.13;2.47;;;24.60;62.50;;;;;;5061101;28;20467;-61
2021/07/26 12:13:06;;;;;;;3.47;2.50;;;24.60;62.60;;;;;;5093466;28;20395;-60
2021/07/26 12:15:32;;;;;;;3.00;2.38;;;24.60;62.50;;;;;;5061561;28;20388;-61
2021/07/26 12:18:06;;;;;;;2.83;2.50;;;24.60;62.50;;;;;;5061259;28;20965;-60
2021/07/26 12:20:50;;;;;;;3.28;2.60;;;24.60;62.50;;;;;;5060010;28;20737;-60
2021/07/26 12:23:18;;;;;;;3.10;2.40;;;24.60;62.40;;;;;;5060993;28;20748;-60
2021/07/26 12:25:58;;;;;;;3.22;2.40;;;24.60;62.40;;;;;;5060977;28;20419;-60
2021/07/26 12:28:39;;;;;;;2.80;2.38;;;24.60;62.40;;;;;;5060863;28;20471;-60
2021/07/26 12:31:27;;;;;;;2.88;2.30;;;24.60;62.40;;;;;;5060930;28;20384;-60
2021/07/26 12:34:12;;;;;;;3.80;2.90;;;24.60;62.50;;;;;;5061702;28;20392;-60
2021/07/26 12:36:37;;;;;;;2.78;2.42;;;24.60;62.40;;;;;;5055066;28;20733;-61
2021/07/26 12:39:05;;;;;;;3.20;2.30;;;24.60;62.40;;;;;;5058495;28;20749;-63
2021/07/26 12:41:31;;;;;;;3.13;2.40;;;24.60;62.40;;;;;;5061504;28;20962;-61
2021/07/26 12:44:16;;;;;;;3.30;2.50;;;24.60;62.40;;;;;;5052948;28;20456;-61
2021/07/26 12:46:48;;;;;;;2.88;2.42;;;24.60;62.30;;;;;;5061968;28;20717;-61
2021/07/26 12:49:15;;;;;;;4.05;2.80;;;24.70;62.50;;;;;;5061226;28;20376;-62
2021/07/26 12:51:41;;;;;;;3.30;2.45;;;24.70;62.40;;;;;;5061887;28;20483;-60
2021/07/26 12:54:07;;;;;;;4.57;2.67;;;24.70;62.40;;;;;;5061579;28;21415;-60
2021/07/26 12:56:32;;;;;;;3.55;2.55;;;24.70;62.60;;;;;;5065551;28;20426;-60